Portada
METAR-TAF:

METAR-TAF

Aeroports :

Cayman Brac, Illes Caiman

latitud: 19-41-13N, longitud: 079-52-58W, altitud: 2 m

Observació

L'informe es va fer fa 10 hores i 48 minuts, a les 00:00 UTC
Vent 5 kt del Est
Temperatura 27°C
Humitat 74%
Pressió 1016 hPa
Visibilitat 10 km o més
Escasses núvols a una alçada de 2000 ft

METAR: MWCB 300000Z 09005KT 9999 FEW020 27/22 Q1016

Hora: 05:48 (10:48 UTC)

Pronòstic

L'informe es va fer fa 23 hores i 48 minuts, a les 11:00 UTC
Pronòstic vàlid del 29 a les 12 UTC al 30 a les 12 UTC
Vent 12 kt del Est
Visibilitat 10 km o més
Escasses núvols a una alçada de 1800 ft
Evolucionant progressivament
l' 29 a les 22 UTC al 30 a les 02 UTC
Vent 4 kt del Est
Probabilitat 3O% :
Temporalment
l' 30 a les 00 UTC al 30 a les 06 UTC
Núvols disperses a una alçada de 1800 ft
xàfecs en les proximitats

TAF: MWCB 291100Z 2912/3012 09012KT 9999 FEW018 BECMG 2922/3002 09004KT PROB3O TEMPO 3000/3006 VCSH SCT018

Observacions i pronòstics meteorològics de més de 4000 aeroports (METAR i TAF).

Les estacions disponibles són els punts grocs i vermells al mapa.

Posi el ratolí al punt desitjat per veure el nom de l'estació.

Feu clic per veure les observacions i els pronòstics meteorològics.

Per canviar el mapa: feu clic els botons verds amb una creu de color negre per apropar; al botó verd amb un guió per allunyar la imatge; o en les fletxes verdes per a mapes adjacents.


METAR-TAF: